sensor_id;sensor_type;location;lat;lon;timestamp;pressure;altitude;pressure_sealevel;temperature;humidity
8894;BME280;4483;48.622;9.230;2022-09-04T00:00:36;97878.97;;;15.68;100.00
8894;BME280;4483;48.622;9.230;2022-09-04T00:03:22;97873.03;;;15.66;100.00
8894;BME280;4483;48.622;9.230;2022-09-04T00:05:55;97877.50;;;15.64;100.00
8894;BME280;4483;48.622;9.230;2022-09-04T00:08:35;97871.63;;;15.60;100.00
8894;BME280;4483;48.622;9.230;2022-09-04T00:11:09;97879.72;;;15.56;100.00
8894;BME280;4483;48.622;9.230;2022-09-04T00:13:42;97871.44;;;15.49;100.00
8894;BME280;4483;48.622;9.230;2022-09-04T00:16:13;97877.47;;;15.50;100.00
8894;BME280;4483;48.622;9.230;2022-09-04T00:18:48;97879.31;;;15.48;100.00
8894;BME280;4483;48.622;9.230;2022-09-04T00:21:20;97878.50;;;15.47;100.00
8894;BME280;4483;48.622;9.230;2022-09-04T12:39:19;98150.41;;;33.28;34.29
8894;BME280;4483;48.622;9.230;2022-09-04T12:41:55;98145.94;;;33.35;33.95
8894;BME280;4483;48.622;9.230;2022-09-04T12:44:34;98152.75;;;33.44;33.85
8894;BME280;4483;48.622;9.230;2022-09-04T12:47:14;98154.97;;;33.34;33.06
8894;BME280;4483;48.622;9.230;2022-09-04T12:49:58;98154.28;;;33.19;32.95
8894;BME280;4483;48.622;9.230;2022-09-04T12:52:49;98160.53;;;33.39;32.75
8894;BME280;4483;48.622;9.230;2022-09-04T12:55:25;98165.44;;;33.29;33.24
8894;BME280;4483;48.622;9.230;2022-09-04T12:58:07;98150.56;;;33.20;32.69
8894;BME280;4483;48.622;9.230;2022-09-04T13:00:42;98153.91;;;33.29;33.38
8894;BME280;4483;48.622;9.230;2022-09-04T13:03:21;98143.47;;;33.34;32.53
8894;BME280;4483;48.622;9.230;2022-09-04T13:06:05;98163.59;;;33.02;32.59
8894;BME280;4483;48.622;9.230;2022-09-04T13:08:45;98168.56;;;32.56;32.94
8894;BME280;4483;48.622;9.230;2022-09-04T13:11:36;98168.44;;;32.65;32.91
8894;BME280;4483;48.622;9.230;2022-09-04T13:14:27;98160.56;;;32.84;33.15
8894;BME280;4483;48.622;9.230;2022-09-04T13:17:02;98156.44;;;33.03;33.25
8894;BME280;4483;48.622;9.230;2022-09-04T13:19:40;98130.88;;;33.21;32.94
8894;BME280;4483;48.622;9.230;2022-09-04T13:22:19;98152.84;;;33.58;32.99
8894;BME280;4483;48.622;9.230;2022-09-04T13:24:57;98155.09;;;33.54;32.60
8894;BME280;4483;48.622;9.230;2022-09-04T13:27:39;98147.13;;;33.67;33.00
8894;BME280;4483;48.622;9.230;2022-09-04T13:30:15;98153.31;;;33.74;32.59
8894;BME280;4483;48.622;9.230;2022-09-04T13:33:09;98155.09;;;33.61;32.83
8894;BME280;4483;48.622;9.230;2022-09-04T13:35:57;98149.84;;;33.33;32.85
8894;BME280;4483;48.622;9.230;2022-09-04T13:38:56;98146.75;;;33.36;33.51
8894;BME280;4483;48.622;9.230;2022-09-04T13:41:51;98143.47;;;33.40;33.18
8894;BME280;4483;48.622;9.230;2022-09-04T13:44:36;98160.38;;;33.13;32.92
8894;BME280;4483;48.622;9.230;2022-09-04T13:47:07;98155.16;;;32.99;33.15
8894;BME280;4483;48.622;9.230;2022-09-04T13:49:37;98154.28;;;32.92;33.42
8894;BME280;4483;48.622;9.230;2022-09-04T13:52:07;98152.00;;;32.89;33.33
8894;BME280;4483;48.622;9.230;2022-09-04T13:54:40;98162.91;;;32.66;33.76
8894;BME280;4483;48.622;9.230;2022-09-04T13:57:13;98164.63;;;32.52;33.34
8894;BME280;4483;48.622;9.230;2022-09-04T13:59:43;98164.97;;;32.43;33.53
8894;BME280;4483;48.622;9.230;2022-09-04T14:02:16;98150.41;;;32.24;34.02
8894;BME280;4483;48.622;9.230;2022-09-04T14:04:51;98153.28;;;32.23;34.02
8894;BME280;4483;48.622;9.230;2022-09-04T14:07:23;98151.59;;;32.22;34.83
8894;BME280;4483;48.622;9.230;2022-09-04T14:09:53;98157.09;;;32.14;34.57
8894;BME280;4483;48.622;9.230;2022-09-04T14:12:34;98154.41;;;32.14;34.62
8894;BME280;4483;48.622;9.230;2022-09-04T14:15:26;98154.28;;;32.22;34.46
8894;BME280;4483;48.622;9.230;2022-09-04T14:18:08;98139.88;;;32.16;34.33
8894;BME280;4483;48.622;9.230;2022-09-04T14:20:44;98153.97;;;32.31;34.44
8894;BME280;4483;48.622;9.230;2022-09-04T14:23:18;98147.03;;;32.37;34.51
8894;BME280;4483;48.622;9.230;2022-09-04T14:25:55;98148.22;;;32.34;34.31
8894;BME280;4483;48.622;9.230;2022-09-04T14:28:29;98146.34;;;32.28;34.10
8894;BME280;4483;48.622;9.230;2022-09-04T14:31:10;98146.47;;;32.20;33.75
8894;BME280;4483;48.622;9.230;2022-09-04T14:33:47;98139.63;;;32.11;34.24
8894;BME280;4483;48.622;9.230;2022-09-04T14:36:24;98142.03;;;32.06;34.76
8894;BME280;4483;48.622;9.230;2022-09-04T14:39:18;98139.09;;;32.01;34.63
8894;BME280;4483;48.622;9.230;2022-09-04T14:42:12;98139.94;;;31.87;34.72
8894;BME280;4483;48.622;9.230;2022-09-04T14:44:56;98116.63;;;31.53;35.22
8894;BME280;4483;48.622;9.230;2022-09-04T14:47:33;98139.50;;;31.48;35.09
8894;BME280;4483;48.622;9.230;2022-09-04T14:50:06;98136.66;;;31.49;35.22
8894;BME280;4483;48.622;9.230;2022-09-04T14:52:38;98136.94;;;31.40;35.62
8894;BME280;4483;48.622;9.230;2022-09-04T14:55:13;98135.38;;;31.16;35.29
8894;BME280;4483;48.622;9.230;2022-09-04T14:57:44;98142.69;;;31.00;35.28
8894;BME280;4483;48.622;9.230;2022-09-04T15:00:16;98141.94;;;30.77;35.38
8894;BME280;4483;48.622;9.230;2022-09-04T15:02:48;98142.06;;;30.60;35.59
8894;BME280;4483;48.622;9.230;2022-09-04T15:05:22;98144.13;;;30.36;35.96
8894;BME280;4483;48.622;9.230;2022-09-04T15:07:58;98137.38;;;30.25;36.51
8894;BME280;4483;48.622;9.230;2022-09-04T15:10:46;98131.63;;;30.14;36.86
8894;BME280;4483;48.622;9.230;2022-09-04T15:13:32;98143.81;;;30.08;37.22
8894;BME280;4483;48.622;9.230;2022-09-04T15:16:09;98141.84;;;30.02;36.89
8894;BME280;4483;48.622;9.230;2022-09-04T15:18:48;98139.66;;;30.06;37.13
8894;BME280;4483;48.622;9.230;2022-09-04T15:21:23;98139.06;;;29.96;37.28
8894;BME280;4483;48.622;9.230;2022-09-04T15:23:59;98136.47;;;29.88;36.94
8894;BME280;4483;48.622;9.230;2022-09-04T15:26:31;98134.50;;;29.82;37.00
8894;BME280;4483;48.622;9.230;2022-09-04T15:29:05;98134.38;;;29.67;37.35
8894;BME280;4483;48.622;9.230;2022-09-04T15:31:35;98138.63;;;29.53;37.51
8894;BME280;4483;48.622;9.230;2022-09-04T15:34:07;98138.94;;;29.50;37.59
8894;BME280;4483;48.622;9.230;2022-09-04T15:36:36;98135.44;;;29.58;37.72
8894;BME280;4483;48.622;9.230;2022-09-04T15:39:05;98140.22;;;29.70;37.78
8894;BME280;4483;48.622;9.230;2022-09-04T15:41:37;98133.78;;;29.57;37.46
8894;BME280;4483;48.622;9.230;2022-09-04T15:44:14;98116.63;;;29.37;37.29
8894;BME280;4483;48.622;9.230;2022-09-04T15:46:48;98140.00;;;29.41;37.50
8894;BME280;4483;48.622;9.230;2022-09-04T15:49:43;98126.81;;;29.25;37.48
8894;BME280;4483;48.622;9.230;2022-09-04T15:52:22;98137.78;;;29.22;37.89
8894;BME280;4483;48.622;9.230;2022-09-04T15:55:04;98134.81;;;29.17;38.01
8894;BME280;4483;48.622;9.230;2022-09-04T15:57:50;98125.34;;;29.15;38.19
8894;BME280;4483;48.622;9.230;2022-09-04T16:00:24;98131.31;;;29.17;38.49
8894;BME280;4483;48.622;9.230;2022-09-04T16:02:59;98131.97;;;29.19;38.68
8894;BME280;4483;48.622;9.230;2022-09-04T16:05:38;98132.13;;;29.09;38.84
8894;BME280;4483;48.622;9.230;2022-09-04T16:08:16;98136.97;;;28.98;38.95
8894;BME280;4483;48.622;9.230;2022-09-04T16:10:52;98129.19;;;28.88;39.18
8894;BME280;4483;48.622;9.230;2022-09-04T16:13:31;98128.72;;;28.85;39.04
8894;BME280;4483;48.622;9.230;2022-09-04T16:16:05;98134.69;;;28.87;39.03
8894;BME280;4483;48.622;9.230;2022-09-04T16:18:42;98137.69;;;28.84;39.59
8894;BME280;4483;48.622;9.230;2022-09-04T16:21:19;98139.31;;;28.85;40.09
8894;BME280;4483;48.622;9.230;2022-09-04T16:23:48;98138.66;;;28.83;40.15
8894;BME280;4483;48.622;9.230;2022-09-04T16:26:18;98136.53;;;28.70;40.15
8894;BME280;4483;48.622;9.230;2022-09-04T16:28:50;98129.72;;;28.51;41.08
8894;BME280;4483;48.622;9.230;2022-09-04T16:31:23;98137.34;;;28.22;41.28
8894;BME280;4483;48.622;9.230;2022-09-04T16:33:56;98128.09;;;27.94;40.81
8894;BME280;4483;48.622;9.230;2022-09-04T16:36:27;98136.31;;;27.83;41.92
8894;BME280;4483;48.622;9.230;2022-09-04T16:39:04;98131.31;;;27.80;41.87
8894;BME280;4483;48.622;9.230;2022-09-04T16:41:42;98144.41;;;27.82;42.48
8894;BME280;4483;48.622;9.230;2022-09-04T16:44:16;98135.63;;;27.81;42.53
8894;BME280;4483;48.622;9.230;2022-09-04T16:46:47;98133.47;;;27.76;43.16
8894;BME280;4483;48.622;9.230;2022-09-04T16:49:33;98127.81;;;27.63;43.87
8894;BME280;4483;48.622;9.230;2022-09-04T16:52:22;98124.44;;;27.45;44.22
8894;BME280;4483;48.622;9.230;2022-09-04T16:54:52;98122.09;;;27.34;45.81
8894;BME280;4483;48.622;9.230;2022-09-04T16:57:25;98128.31;;;27.25;45.53
8894;BME280;4483;48.622;9.230;2022-09-04T16:59:57;98122.00;;;27.18;47.21
8894;BME280;4483;48.622;9.230;2022-09-04T17:02:29;98096.09;;;26.88;47.88
8894;BME280;4483;48.622;9.230;2022-09-04T17:05:06;98122.56;;;26.96;49.13
8894;BME280;4483;48.622;9.230;2022-09-04T17:07:39;98130.75;;;26.85;49.83
8894;BME280;4483;48.622;9.230;2022-09-04T17:10:18;98132.19;;;26.71;50.60
8894;BME280;4483;48.622;9.230;2022-09-04T17:12:50;98121.03;;;26.42;51.24
8894;BME280;4483;48.622;9.230;2022-09-04T17:15:24;98129.50;;;26.28;51.86
8894;BME280;4483;48.622;9.230;2022-09-04T17:17:54;98122.31;;;26.03;52.68
8894;BME280;4483;48.622;9.230;2022-09-04T17:20:24;98131.59;;;25.89;53.45
8894;BME280;4483;48.622;9.230;2022-09-04T17:23:06;98133.41;;;25.71;53.55
8894;BME280;4483;48.622;9.230;2022-09-04T17:25:40;98133.75;;;25.59;54.43
8894;BME280;4483;48.622;9.230;2022-09-04T17:28:25;98140.22;;;25.47;54.68
8894;BME280;4483;48.622;9.230;2022-09-04T17:30:55;98122.97;;;25.25;55.50
8894;BME280;4483;48.622;9.230;2022-09-04T17:33:28;98133.09;;;25.20;56.19
8894;BME280;4483;48.622;9.230;2022-09-04T17:36:04;98133.44;;;25.08;56.67
8894;BME280;4483;48.622;9.230;2022-09-04T17:38:38;98131.44;;;24.92;57.14
8894;BME280;4483;48.622;9.230;2022-09-04T17:41:12;98133.00;;;24.75;57.67
8894;BME280;4483;48.622;9.230;2022-09-04T17:46:35;98137.34;;;24.48;59.03
8894;BME280;4483;48.622;9.230;2022-09-04T17:49:13;98148.19;;;24.35;58.88
8894;BME280;4483;48.622;9.230;2022-09-04T17:51:47;98147.78;;;24.21;59.71
8894;BME280;4483;48.622;9.230;2022-09-04T17:54:15;98155.13;;;24.08;60.34
8894;BME280;4483;48.622;9.230;2022-09-04T17:56:46;98158.00;;;23.95;60.82
8894;BME280;4483;48.622;9.230;2022-09-04T17:59:21;98159.06;;;23.83;61.29
8894;BME280;4483;48.622;9.230;2022-09-04T18:01:57;98155.59;;;23.73;61.54
8894;BME280;4483;48.622;9.230;2022-09-04T18:04:32;98157.66;;;23.60;62.11
8894;BME280;4483;48.622;9.230;2022-09-04T18:07:09;98161.34;;;23.48;62.58
8894;BME280;4483;48.622;9.230;2022-09-04T18:09:41;98164.78;;;23.39;63.16
8894;BME280;4483;48.622;9.230;2022-09-04T18:12:18;98166.66;;;23.27;63.38
8894;BME280;4483;48.622;9.230;2022-09-04T18:14:52;98168.53;;;23.16;63.90
8894;BME280;4483;48.622;9.230;2022-09-04T18:17:29;98170.56;;;23.03;64.68
8894;BME280;4483;48.622;9.230;2022-09-04T18:20:07;98177.81;;;22.89;65.06
8894;BME280;4483;48.622;9.230;2022-09-04T18:23:12;98181.28;;;22.69;65.42
8894;BME280;4483;48.622;9.230;2022-09-04T18:25:46;98192.84;;;22.57;66.38
8894;BME280;4483;48.622;9.230;2022-09-04T18:28:18;98192.75;;;22.48;67.29
8894;BME280;4483;48.622;9.230;2022-09-04T18:31:05;98203.16;;;22.38;67.87
8894;BME280;4483;48.622;9.230;2022-09-04T18:33:38;98201.78;;;22.23;68.29
8894;BME280;4483;48.622;9.230;2022-09-04T18:36:12;98202.44;;;22.16;68.95
8894;BME280;4483;48.622;9.230;2022-09-04T18:38:55;98217.13;;;22.07;69.41
8894;BME280;4483;48.622;9.230;2022-09-04T18:41:29;98218.97;;;21.95;70.29
8894;BME280;4483;48.622;9.230;2022-09-04T18:44:02;98231.97;;;21.86;70.86
8894;BME280;4483;48.622;9.230;2022-09-04T18:46:31;98231.84;;;21.76;71.72
8894;BME280;4483;48.622;9.230;2022-09-04T18:49:00;98238.78;;;21.66;71.79
8894;BME280;4483;48.622;9.230;2022-09-04T18:51:32;98236.25;;;21.54;72.51
8894;BME280;4483;48.622;9.230;2022-09-04T18:54:08;98238.09;;;21.42;72.88
8894;BME280;4483;48.622;9.230;2022-09-04T18:56:42;98239.63;;;21.34;73.55
8894;BME280;4483;48.622;9.230;2022-09-04T18:59:14;98234.03;;;21.27;74.10
8894;BME280;4483;48.622;9.230;2022-09-04T19:01:48;98239.97;;;21.18;74.78
8894;BME280;4483;48.622;9.230;2022-09-04T19:04:33;98244.84;;;21.12;74.91
8894;BME280;4483;48.622;9.230;2022-09-04T19:07:05;98235.06;;;21.02;75.81
8894;BME280;4483;48.622;9.230;2022-09-04T19:09:50;98240.03;;;20.94;76.16
8894;BME280;4483;48.622;9.230;2022-09-04T19:12:22;98241.91;;;20.81;76.87
8894;BME280;4483;48.622;9.230;2022-09-04T19:14:58;98249.28;;;20.76;77.43
8894;BME280;4483;48.622;9.230;2022-09-04T19:17:29;98256.03;;;20.68;77.81
8894;BME280;4483;48.622;9.230;2022-09-04T19:20:01;98255.78;;;20.60;78.22
8894;BME280;4483;48.622;9.230;2022-09-04T19:22:34;98259.91;;;20.51;78.33
8894;BME280;4483;48.622;9.230;2022-09-04T19:25:05;98257.84;;;20.44;79.27
8894;BME280;4483;48.622;9.230;2022-09-04T19:27:37;98263.03;;;20.33;78.75
8894;BME280;4483;48.622;9.230;2022-09-04T19:30:13;98263.09;;;20.20;79.43
8894;BME280;4483;48.622;9.230;2022-09-04T19:32:53;98268.34;;;20.08;79.94
8894;BME280;4483;48.622;9.230;2022-09-04T19:35:30;98262.84;;;19.99;81.06
8894;BME280;4483;48.622;9.230;2022-09-04T19:38:03;98258.88;;;19.94;81.57
8894;BME280;4483;48.622;9.230;2022-09-04T19:40:36;98255.75;;;19.89;81.84
8894;BME280;4483;48.622;9.230;2022-09-04T19:43:15;98232.59;;;19.72;82.00
8894;BME280;4483;48.622;9.230;2022-09-04T19:45:50;98249.50;;;19.79;82.08
8894;BME280;4483;48.622;9.230;2022-09-04T19:48:39;98238.97;;;19.68;82.16
8894;BME280;4483;48.622;9.230;2022-09-04T19:51:10;98247.25;;;19.62;83.02
8894;BME280;4483;48.622;9.230;2022-09-04T19:53:45;98252.91;;;19.56;82.94
8894;BME280;4483;48.622;9.230;2022-09-04T19:56:22;98261.91;;;19.52;83.17
8894;BME280;4483;48.622;9.230;2022-09-04T19:58:55;98257.13;;;19.46;83.52
8894;BME280;4483;48.622;9.230;2022-09-04T20:01:26;98251.28;;;19.42;84.06
8894;BME280;4483;48.622;9.230;2022-09-04T20:03:57;98245.41;;;19.39;84.18
8894;BME280;4483;48.622;9.230;2022-09-04T20:06:27;98247.59;;;19.32;84.19
8894;BME280;4483;48.622;9.230;2022-09-04T20:09:01;98249.41;;;19.32;84.38
8894;BME280;4483;48.622;9.230;2022-09-04T20:11:33;98246.22;;;19.27;84.06
8894;BME280;4483;48.622;9.230;2022-09-04T20:14:10;98251.78;;;19.22;84.27
8894;BME280;4483;48.622;9.230;2022-09-04T20:16:43;98250.31;;;19.18;84.97
8894;BME280;4483;48.622;9.230;2022-09-04T20:19:19;98250.72;;;19.12;85.13
8894;BME280;4483;48.622;9.230;2022-09-04T20:21:49;98248.84;;;19.01;84.63
8894;BME280;4483;48.622;9.230;2022-09-04T20:24:20;98242.88;;;18.99;85.31
8894;BME280;4483;48.622;9.230;2022-09-04T20:26:53;98250.84;;;18.98;85.57
8894;BME280;4483;48.622;9.230;2022-09-04T20:29:25;98250.44;;;18.91;85.36
8894;BME280;4483;48.622;9.230;2022-09-04T20:31:58;98242.38;;;18.82;85.21
8894;BME280;4483;48.622;9.230;2022-09-04T20:34:32;98244.47;;;18.77;85.50
8894;BME280;4483;48.622;9.230;2022-09-04T20:37:18;98246.41;;;18.73;85.81
8894;BME280;4483;48.622;9.230;2022-09-04T20:39:55;98245.16;;;18.66;85.85
8894;BME280;4483;48.622;9.230;2022-09-04T20:42:26;98249.97;;;18.60;86.04
8894;BME280;4483;48.622;9.230;2022-09-04T20:44:56;98241.91;;;18.50;86.24
8894;BME280;4483;48.622;9.230;2022-09-04T20:47:29;98254.94;;;18.50;86.65
8894;BME280;4483;48.622;9.230;2022-09-04T20:50:11;98256.91;;;18.47;86.62
8894;BME280;4483;48.622;9.230;2022-09-04T20:52:45;98259.00;;;18.42;87.07
8894;BME280;4483;48.622;9.230;2022-09-04T20:55:25;98262.81;;;18.36;86.91
8894;BME280;4483;48.622;9.230;2022-09-04T20:58:15;98260.59;;;18.30;86.48
8894;BME280;4483;48.622;9.230;2022-09-04T21:00:50;98256.94;;;18.20;87.23
8894;BME280;4483;48.622;9.230;2022-09-04T21:03:33;98256.56;;;18.12;87.38
8894;BME280;4483;48.622;9.230;2022-09-04T21:06:19;98254.44;;;18.04;87.86
8894;BME280;4483;48.622;9.230;2022-09-04T21:09:00;98253.91;;;17.99;87.97
8894;BME280;4483;48.622;9.230;2022-09-04T21:11:32;98259.31;;;17.96;88.86
8894;BME280;4483;48.622;9.230;2022-09-04T21:14:04;98254.28;;;17.93;88.51
8894;BME280;4483;48.622;9.230;2022-09-04T21:16:42;98258.03;;;17.89;88.37
8894;BME280;4483;48.622;9.230;2022-09-04T21:19:29;98251.25;;;17.87;88.57
8894;BME280;4483;48.622;9.230;2022-09-04T21:22:28;98262.59;;;17.86;88.65
8894;BME280;4483;48.622;9.230;2022-09-04T21:25:25;98265.50;;;17.81;88.52
8894;BME280;4483;48.622;9.230;2022-09-04T21:28:19;98260.56;;;17.77;88.67
8894;BME280;4483;48.622;9.230;2022-09-04T21:31:11;98264.69;;;17.67;88.76
8894;BME280;4483;48.622;9.230;2022-09-04T21:33:53;98257.25;;;17.61;89.49
8894;BME280;4483;48.622;9.230;2022-09-04T21:36:31;98263.78;;;17.54;89.58
8894;BME280;4483;48.622;9.230;2022-09-04T21:39:22;98267.59;;;17.48;89.45
8894;BME280;4483;48.622;9.230;2022-09-04T21:42:01;98274.16;;;17.40;90.12
8894;BME280;4483;48.622;9.230;2022-09-04T21:44:59;98273.50;;;17.36;90.10
8894;BME280;4483;48.622;9.230;2022-09-04T21:47:44;98289.53;;;17.30;90.34
8894;BME280;4483;48.622;9.230;2022-09-04T21:56:40;98279.72;;;17.05;91.22
8894;BME280;4483;48.622;9.230;2022-09-04T21:59:32;98280.94;;;17.00;91.64
8894;BME280;4483;48.622;9.230;2022-09-04T22:02:12;98289.19;;;16.92;91.69
8894;BME280;4483;48.622;9.230;2022-09-04T22:04:50;98289.56;;;16.86;92.50
8894;BME280;4483;48.622;9.230;2022-09-04T22:07:28;98292.25;;;16.85;92.70
8894;BME280;4483;48.622;9.230;2022-09-04T22:10:08;98290.56;;;16.84;92.70
8894;BME280;4483;48.622;9.230;2022-09-04T22:12:49;98291.31;;;16.86;93.03
8894;BME280;4483;48.622;9.230;2022-09-04T22:15:30;98300.53;;;16.77;92.68
8894;BME280;4483;48.622;9.230;2022-09-04T22:18:29;98290.56;;;16.70;92.61
8894;BME280;4483;48.622;9.230;2022-09-04T22:21:13;98296.84;;;16.66;92.89
8894;BME280;4483;48.622;9.230;2022-09-04T22:24:18;98294.50;;;16.61;93.46
8894;BME280;4483;48.622;9.230;2022-09-04T22:30:03;98294.94;;;16.54;94.09
8894;BME280;4483;48.622;9.230;2022-09-04T22:33:09;98292.34;;;16.54;94.35
8894;BME280;4483;48.622;9.230;2022-09-04T22:39:42;98300.41;;;16.49;94.30
8894;BME280;4483;48.622;9.230;2022-09-04T22:42:45;98299.88;;;16.43;94.36
8894;BME280;4483;48.622;9.230;2022-09-04T22:45:31;98295.88;;;16.37;94.39
8894;BME280;4483;48.622;9.230;2022-09-04T22:48:26;98304.78;;;16.33;94.85
8894;BME280;4483;48.622;9.230;2022-09-04T22:51:09;98306.44;;;16.34;94.92
8894;BME280;4483;48.622;9.230;2022-09-04T22:56:56;98299.59;;;16.33;95.30
8894;BME280;4483;48.622;9.230;2022-09-04T22:59:46;98315.19;;;16.33;95.43
8894;BME280;4483;48.622;9.230;2022-09-04T23:02:26;98311.00;;;16.31;95.35
8894;BME280;4483;48.622;9.230;2022-09-04T23:05:20;98307.72;;;16.27;95.51
8894;BME280;4483;48.622;9.230;2022-09-04T23:08:12;98303.44;;;16.26;95.85
8894;BME280;4483;48.622;9.230;2022-09-04T23:11:06;98279.31;;;16.08;95.61
8894;BME280;4483;48.622;9.230;2022-09-04T23:13:52;98307.28;;;16.19;96.00
8894;BME280;4483;48.622;9.230;2022-09-04T23:16:36;98313.69;;;16.13;95.85
8894;BME280;4483;48.622;9.230;2022-09-04T23:19:14;98313.09;;;16.08;95.96
8894;BME280;4483;48.622;9.230;2022-09-04T23:21:58;98316.78;;;16.04;95.98
8894;BME280;4483;48.622;9.230;2022-09-04T23:27:31;98322.41;;;15.97;97.18
8894;BME280;4483;48.622;9.230;2022-09-04T23:30:07;98319.88;;;15.95;97.29
8894;BME280;4483;48.622;9.230;2022-09-04T23:32:53;98316.53;;;15.93;97.09
8894;BME280;4483;48.622;9.230;2022-09-04T23:35:33;98320.91;;;15.93;97.46
8894;BME280;4483;48.622;9.230;2022-09-04T23:38:22;98328.94;;;15.88;96.94
8894;BME280;4483;48.622;9.230;2022-09-04T23:40:54;98323.91;;;15.85;97.81
8894;BME280;4483;48.622;9.230;2022-09-04T23:46:45;98326.94;;;15.78;97.90
8894;BME280;4483;48.622;9.230;2022-09-04T23:49:36;98323.81;;;15.71;97.41
8894;BME280;4483;48.622;9.230;2022-09-04T23:52:13;98319.53;;;15.70;98.55
8894;BME280;4483;48.622;9.230;2022-09-04T23:55:02;98319.44;;;15.72;98.52
8894;BME280;4483;48.622;9.230;2022-09-04T23:57:41;98309.91;;;15.72;98.19
